Time;durP1;ratioP1;P1;durP2;ratioP2;P2;SDS_P1;SDS_P2;PMS_P1;PMS_P2;Temp;Humidity;BMP_temperature;BMP_pressure;BME280_temperature;BME280_humidity;BME280_pressure;Samples;Min_cycle;Max_cycle;Signal;HPM_P1;HPM_P2
2023/08/27 00:01:01;;;;;;;77.03;73.63;;;;;;;13.99;100.00;101017.91;5051034;28;20953;-47
2023/08/27 00:03:28;;;;;;;77.17;73.60;;;;;;;13.97;100.00;101008.44;5042607;28;20930;-44
2023/08/27 00:05:57;;;;;;;88.40;84.50;;;;;;;13.94;100.00;101012.38;5042211;28;20465;-41
2023/08/27 00:08:25;;;;;;;79.77;75.87;;;;;;;13.93;100.00;101017.91;5042366;28;20458;-42
2023/08/27 00:10:57;;;;;;;78.27;74.60;;;;;;;13.91;100.00;101012.78;5050641;28;20455;-44
2023/08/27 00:13:25;;;;;;;89.17;84.70;;;;;;;13.90;100.00;101012.97;5050410;28;20474;-46
2023/08/27 00:15:53;;;;;;;83.17;79.07;;;;;;;13.90;100.00;101013.81;5050341;28;20458;-46
2023/08/27 00:18:22;;;;;;;87.00;82.70;;;;;;;13.89;100.00;101014.84;5050935;28;20462;-43
2023/08/27 00:20:49;;;;;;;89.97;85.67;;;;;;;13.89;100.00;101020.19;5042143;28;20431;-41
2023/08/27 00:23:17;;;;;;;89.03;85.23;;;;;;;13.89;100.00;101020.19;5050046;28;20502;-42
2023/08/27 00:25:45;;;;;;;89.87;85.50;;;;;;;13.89;100.00;101019.41;5047845;28;20953;-45
2023/08/27 00:28:13;;;;;;;91.83;87.10;;;;;;;13.89;100.00;101028.25;5044646;28;20593;-43
2023/08/27 00:30:41;;;;;;;91.30;87.27;;;;;;;13.91;100.00;101018.16;5050655;28;20442;-45
2023/08/27 00:33:09;;;;;;;92.77;88.57;;;;;;;13.91;100.00;101020.00;5050229;28;20447;-47
2023/08/27 00:35:38;;;;;;;96.40;91.50;;;;;;;13.90;100.00;101007.63;5048901;28;21046;-44
2023/08/27 00:38:06;;;;;;;93.40;89.00;;;;;;;13.90;100.00;101007.63;5043279;28;20431;-47
2023/08/27 00:40:34;;;;;;;94.50;90.30;;;;;;;13.89;100.00;101008.69;5050043;28;20485;-43
2023/08/27 00:43:03;;;;;;;90.63;86.63;;;;;;;13.88;100.00;101007.03;5049688;28;20529;-41
2023/08/27 00:45:30;;;;;;;94.10;89.13;;;;;;;13.87;100.00;101003.50;5041613;28;20865;-41
2023/08/27 00:47:58;;;;;;;90.47;85.83;;;;;;;13.85;100.00;101003.75;5050289;28;20809;-42
2023/08/27 00:50:26;;;;;;;90.60;86.70;;;;;;;13.83;100.00;101003.09;5049858;28;20438;-41
2023/08/27 00:52:55;;;;;;;91.67;87.40;;;;;;;13.81;100.00;100999.81;5046646;28;20780;-41
2023/08/27 00:55:23;;;;;;;91.87;87.50;;;;;;;13.80;100.00;100998.16;5044740;28;20494;-41
2023/08/27 00:57:52;;;;;;;90.23;85.87;;;;;;;13.79;100.00;100999.22;5049673;28;20918;-41
2023/08/27 01:00:20;;;;;;;87.77;83.30;;;;;;;13.78;100.00;100994.88;5050087;28;20427;-41
2023/08/27 01:02:48;;;;;;;99.50;94.63;;;;;;;13.76;100.00;100994.28;5049632;28;20459;-42
2023/08/27 01:05:16;;;;;;;96.80;92.50;;;;;;;13.76;100.00;100996.13;5042699;28;20467;-41
2023/08/27 01:07:52;;;;;;;94.77;90.47;;;;;;;13.74;100.00;100984.78;5046354;28;20435;-41
2023/08/27 01:10:31;;;;;;;97.53;93.23;;;;;;;13.71;100.00;100986.03;5044465;28;21010;-42
2023/08/27 01:13:04;;;;;;;100.37;95.37;;;;;;;13.69;100.00;100977.38;5045762;28;20463;-41
2023/08/27 01:15:33;;;;;;;96.80;92.13;;;;;;;13.70;100.00;100983.56;5037688;28;20867;-42
2023/08/27 01:18:04;;;;;;;94.97;90.37;;;;;;;13.70;100.00;100984.41;5050113;28;20512;-44
2023/08/27 01:20:32;;;;;;;95.57;91.27;;;;;;;13.69;100.00;100979.25;5049584;28;20431;-41
2023/08/27 01:23:01;;;;;;;98.37;94.07;;;;;;;13.71;100.00;100966.44;5040767;28;20451;-41
2023/08/27 01:25:35;;;;;;;95.73;91.43;;;;;;;13.71;100.00;100966.44;5048897;28;20830;-43
2023/08/27 01:28:10;;;;;;;103.20;98.57;;;;;;;13.72;100.00;100960.88;5049564;28;20439;-41
2023/08/27 01:30:41;;;;;;;105.90;101.13;;;;;;;13.71;100.00;100955.72;5049659;28;20451;-43
2023/08/27 01:33:15;;;;;;;106.13;101.13;;;;;;;13.70;100.00;100962.97;5049793;28;20475;-43
2023/08/27 01:35:43;;;;;;;100.17;95.63;;;;;;;13.70;100.00;100971.00;5048875;28;20524;-42
2023/08/27 01:38:13;;;;;;;96.80;92.63;;;;;;;13.70;100.00;100965.66;5049377;28;20522;-42
2023/08/27 01:40:41;;;;;;;106.27;100.97;;;;;;;13.71;100.00;100971.81;5049413;28;20534;-43
2023/08/27 01:43:09;;;;;;;101.60;96.57;;;;;;;13.71;100.00;100958.41;5048866;28;20462;-42
2023/08/27 01:45:36;;;;;;;101.23;96.77;;;;;;;13.71;100.00;100955.72;5048978;28;20455;-42
2023/08/27 01:48:05;;;;;;;100.57;96.00;;;;;;;13.70;100.00;100960.28;5042088;28;20436;-42
2023/08/27 01:50:33;;;;;;;106.83;101.87;;;;;;;13.71;100.00;100961.06;5041115;28;20431;-43
2023/08/27 01:53:00;;;;;;;102.80;98.10;;;;;;;13.68;100.00;100958.81;5041050;28;20455;-44
2023/08/27 01:55:30;;;;;;;105.83;100.93;;;;;;;13.67;100.00;100957.19;5040677;28;20546;-41
2023/08/27 01:57:56;;;;;;;103.23;98.73;;;;;;;13.67;100.00;100954.53;5049075;28;20427;-42
2023/08/27 02:00:24;;;;;;;102.40;97.87;;;;;;;13.67;100.00;100958.03;5049496;28;20435;-45
2023/08/27 02:02:52;;;;;;;104.43;99.43;;;;;;;13.68;100.00;100954.28;5041026;28;20565;-42
2023/08/27 02:05:20;;;;;;;106.03;101.23;;;;;;;13.72;100.00;100966.25;5048288;28;20469;-44
2023/08/27 02:07:48;;;;;;;108.90;103.70;;;;;;;13.76;100.00;100966.66;5040950;28;20523;-42
2023/08/27 02:10:15;;;;;;;103.77;98.97;;;;;;;13.79;100.00;100976.94;5049156;28;20514;-41
2023/08/27 02:12:44;;;;;;;100.70;96.20;;;;;;;13.82;100.00;100980.03;5048629;28;20854;-43
2023/08/27 02:15:12;;;;;;;106.20;101.27;;;;;;;13.87;100.00;100979.38;5040394;28;21184;-43
2023/08/27 02:17:39;;;;;;;109.40;104.60;;;;;;;13.91;100.00;100979.78;5052593;28;20431;-44
2023/08/27 02:20:09;;;;;;;111.17;106.23;;;;;;;13.96;100.00;100988.00;5047563;28;20485;-43
2023/08/27 02:22:37;;;;;;;111.57;106.87;;;;;;;14.00;100.00;100989.25;5044562;28;20458;-43
2023/08/27 02:25:06;;;;;;;111.30;106.43;;;;;;;14.05;100.00;100976.00;5050202;28;20462;-45
2023/08/27 02:27:33;;;;;;;107.80;103.00;;;;;;;14.08;100.00;100965.69;5052565;28;20438;-43
2023/08/27 02:30:03;;;;;;;112.83;108.23;;;;;;;14.13;100.00;100960.50;5052300;28;20923;-43
2023/08/27 02:32:30;;;;;;;110.57;106.00;;;;;;;14.17;100.00;100961.72;5053096;28;20451;-42
2023/08/27 02:34:58;;;;;;;114.77;109.77;;;;;;;14.19;100.00;100956.13;5051827;28;20467;-41
2023/08/27 02:37:26;;;;;;;112.50;107.70;;;;;;;14.22;100.00;100953.00;5052454;28;20431;-43
2023/08/27 02:39:54;;;;;;;121.80;116.40;;;;;;;14.24;100.00;100948.28;5052409;28;20518;-41
2023/08/27 02:42:21;;;;;;;115.20;110.20;;;;;;;14.26;100.00;100930.91;5043798;28;20513;-41
2023/08/27 02:44:49;;;;;;;110.10;105.30;;;;;;;14.30;100.00;100913.38;5043145;28;20900;-41
2023/08/27 02:47:18;;;;;;;113.70;108.90;;;;;;;14.32;100.00;100903.25;5039447;28;20463;-44
2023/08/27 02:49:45;;;;;;;113.47;108.63;;;;;;;14.33;100.00;100888.81;5049480;28;20950;-41
2023/08/27 02:52:13;;;;;;;116.33;111.27;;;;;;;14.34;100.00;100903.84;5051780;28;20438;-41
2023/08/27 02:54:41;;;;;;;113.30;108.43;;;;;;;14.35;100.00;100896.63;5051455;28;20459;-43
2023/08/27 02:57:08;;;;;;;122.50;117.03;;;;;;;14.34;100.00;100901.19;5052107;28;20431;-43
2023/08/27 02:59:36;;;;;;;118.40;113.20;;;;;;;14.34;100.00;100889.63;5052175;28;20509;-41
2023/08/27 03:02:04;;;;;;;124.83;119.27;;;;;;;14.34;100.00;100889.63;5044038;28;20465;-41
2023/08/27 03:04:33;;;;;;;116.30;111.30;;;;;;;14.33;100.00;100885.31;5051531;28;20459;-41
2023/08/27 03:07:01;;;;;;;123.90;118.70;;;;;;;14.32;100.00;100873.75;5043609;28;20438;-43
2023/08/27 03:09:28;;;;;;;118.33;113.07;;;;;;;14.35;100.00;100873.31;5051823;28;20522;-42
2023/08/27 03:11:56;;;;;;;119.67;114.60;;;;;;;14.38;100.00;100880.09;5051404;28;20445;-42
2023/08/27 03:14:24;;;;;;;115.60;110.67;;;;;;;14.39;100.00;100879.88;5051580;28;20504;-42
2023/08/27 03:16:51;;;;;;;119.53;114.50;;;;;;;14.39;100.00;100876.41;5052526;28;20428;-41
2023/08/27 03:19:19;;;;;;;120.93;116.00;;;;;;;14.42;100.00;100875.13;5046443;28;20471;-41
2023/08/27 03:21:48;;;;;;;128.97;122.93;;;;;;;14.42;100.00;100891.22;5048983;28;20435;-40
2023/08/27 03:24:15;;;;;;;126.57;120.97;;;;;;;14.40;100.00;100889.56;5046099;28;20565;-41
2023/08/27 03:26:43;;;;;;;115.63;110.70;;;;;;;14.44;100.00;100894.50;5048337;28;20431;-42
2023/08/27 03:29:11;;;;;;;117.67;112.60;;;;;;;14.45;100.00;100902.34;5043417;28;20855;-40
2023/08/27 03:31:38;;;;;;;120.97;115.87;;;;;;;14.46;100.00;100909.34;5044058;28;20438;-41
2023/08/27 03:34:06;;;;;;;124.20;118.90;;;;;;;14.48;100.00;100911.81;5042878;28;20553;-42
2023/08/27 03:36:34;;;;;;;119.73;114.90;;;;;;;14.48;100.00;100911.81;5051357;28;20514;-41
2023/08/27 03:39:04;;;;;;;125.47;120.10;;;;;;;14.47;100.00;100910.16;5043225;28;20446;-43
2023/08/27 03:41:31;;;;;;;119.40;114.30;;;;;;;14.48;100.00;100906.47;5051179;28;20432;-46
2023/08/27 03:43:59;;;;;;;117.67;112.67;;;;;;;14.49;100.00;100898.19;5050593;28;20451;-42
2023/08/27 03:46:27;;;;;;;122.10;116.60;;;;;;;14.50;100.00;100885.59;5051686;28;21007;-42
2023/08/27 03:48:54;;;;;;;120.77;115.47;;;;;;;14.51;100.00;100888.06;5042808;28;20435;-43
2023/08/27 03:51:22;;;;;;;118.63;113.67;;;;;;;14.53;100.00;100887.84;5050891;28;20463;-45
2023/08/27 03:53:50;;;;;;;118.57;113.50;;;;;;;14.53;100.00;100879.78;5049546;28;20461;-41
2023/08/27 03:56:19;;;;;;;119.20;114.00;;;;;;;14.54;100.00;100884.13;5044115;28;20989;-41
2023/08/27 03:58:47;;;;;;;118.40;113.50;;;;;;;14.53;100.00;100885.97;5042621;28;20489;-41
2023/08/27 04:01:15;;;;;;;117.93;113.10;;;;;;;14.53;100.00;100888.66;5051205;28;20443;-43
2023/08/27 04:03:42;;;;;;;121.40;116.30;;;;;;;14.54;100.00;100882.25;5050692;28;20524;-42
2023/08/27 04:06:11;;;;;;;119.10;114.07;;;;;;;14.52;100.00;100880.81;5042172;28;20463;-42
2023/08/27 04:08:38;;;;;;;124.17;119.07;;;;;;;14.53;100.00;100877.91;5050943;28;20424;-43
2023/08/27 04:11:06;;;;;;;122.27;116.77;;;;;;;14.51;100.00;100871.97;5050360;28;20459;-41
2023/08/27 04:13:35;;;;;;;126.90;121.33;;;;;;;14.51;100.00;100873.81;5050608;28;20486;-42
2023/08/27 04:16:04;;;;;;;127.73;122.63;;;;;;;14.49;100.00;100879.38;5050539;28;20534;-44
2023/08/27 04:18:33;;;;;;;129.77;124.47;;;;;;;14.50;100.00;100877.53;5050610;28;20947;-41
2023/08/27 04:21:01;;;;;;;135.83;130.20;;;;;;;14.47;100.00;100875.28;5050249;28;20974;-41
2023/08/27 04:23:29;;;;;;;125.73;120.80;;;;;;;14.43;100.00;100876.75;5045817;28;20443;-41
2023/08/27 04:25:57;;;;;;;123.10;117.83;;;;;;;14.40;100.00;100883.38;5049819;28;20570;-41
2023/08/27 04:28:25;;;;;;;127.30;121.97;;;;;;;14.36;100.00;100883.03;5050463;28;20432;-41
2023/08/27 04:30:54;;;;;;;121.23;116.03;;;;;;;14.33;100.00;100880.78;5042056;28;20508;-41
2023/08/27 04:33:21;;;;;;;125.00;119.70;;;;;;;14.31;100.00;100876.59;5050262;28;20551;-41
2023/08/27 04:35:52;;;;;;;129.07;123.00;;;;;;;14.29;100.00;100878.69;5048819;28;20454;-42
2023/08/27 04:38:20;;;;;;;131.33;125.67;;;;;;;14.24;100.00;100878.53;5043441;28;20512;-41
2023/08/27 04:40:50;;;;;;;112.97;108.27;;;;;;;14.21;100.00;100881.66;5050271;28;20435;-40
2023/08/27 04:43:18;;;;;;;119.20;113.90;;;;;;;14.20;100.00;100875.47;5049684;28;20478;-40
2023/08/27 04:45:46;;;;;;;114.90;109.83;;;;;;;14.17;100.00;100875.06;5049592;28;20502;-40
2023/08/27 04:48:15;;;;;;;117.37;112.57;;;;;;;14.16;100.00;100882.28;5050575;28;20442;-41
2023/08/27 04:50:45;;;;;;;115.50;110.40;;;;;;;14.15;100.00;100880.66;5041992;28;21006;-42
2023/08/27 04:53:13;;;;;;;110.67;105.93;;;;;;;14.15;100.00;100893.25;5041920;28;20447;-41
2023/08/27 04:55:41;;;;;;;110.37;105.60;;;;;;;14.16;100.00;100895.69;5049344;28;20461;-41
2023/08/27 04:58:08;;;;;;;114.63;109.47;;;;;;;14.20;100.00;100898.78;5049656;28;20442;-42
2023/08/27 05:00:36;;;;;;;113.57;108.13;;;;;;;14.20;100.00;100883.50;5050473;28;20431;-41
2023/08/27 05:03:04;;;;;;;111.87;106.87;;;;;;;14.25;100.00;100886.34;5049607;28;20463;-42
2023/08/27 05:05:33;;;;;;;115.77;110.33;;;;;;;14.30;100.00;100899.94;5049435;28;20494;-43
2023/08/27 05:08:01;;;;;;;108.97;103.97;;;;;;;14.43;100.00;100885.63;5049773;28;20518;-44
2023/08/27 05:10:29;;;;;;;93.97;89.27;;;;;;;15.02;100.00;100903.09;5049547;28;20805;-41
2023/08/27 05:12:56;;;;;;;79.70;75.80;;;;;;;15.41;100.00;100918.81;5049585;28;20458;-41
2023/08/27 05:15:24;;;;;;;80.60;76.87;;;;;;;15.66;100.00;100924.94;5049481;28;20455;-43
2023/08/27 05:17:52;;;;;;;80.03;76.23;;;;;;;15.94;100.00;100917.16;5050236;28;20514;-43
2023/08/27 05:20:20;;;;;;;60.97;57.90;;;;;;;16.66;100.00;100915.28;5049523;28;20463;-41
2023/08/27 05:22:48;;;;;;;51.33;48.33;;;;;;;17.48;100.00;100913.38;5049069;28;20532;-42
2023/08/27 05:25:16;;;;;;;43.93;41.33;;;;;;;18.28;100.00;100922.25;5048931;28;20512;-44
2023/08/27 05:27:45;;;;;;;42.40;40.00;;;;;;;19.07;100.00;100914.97;5041371;28;20441;-44
2023/08/27 05:30:14;;;;;;;40.53;38.43;;;;;;;19.67;100.00;100910.41;5049558;28;20471;-42
2023/08/27 05:32:43;;;;;;;42.87;40.60;;;;;;;20.28;100.00;100887.53;5042308;28;20455;-41
2023/08/27 05:35:11;;;;;;;44.23;41.70;;;;;;;20.86;100.00;100877.69;5048682;28;20454;-43
2023/08/27 05:37:39;;;;;;;40.63;38.40;;;;;;;21.47;100.00;100881.63;5049242;28;21006;-41
2023/08/27 05:40:09;;;;;;;42.97;40.37;;;;;;;21.07;100.00;100860.50;5049513;28;20864;-41
2023/08/27 05:42:37;;;;;;;48.40;45.87;;;;;;;20.62;100.00;100850.16;5048966;28;21017;-40
2023/08/27 05:45:05;;;;;;;49.70;47.40;;;;;;;20.30;100.00;100855.59;5040669;28;20466;-46
2023/08/27 05:47:33;;;;;;;49.93;47.33;;;;;;;20.05;100.00;100859.91;5049845;28;20891;-41
2023/08/27 05:50:00;;;;;;;55.23;52.23;;;;;;;19.73;100.00;100866.09;5049066;28;20519;-40
2023/08/27 05:52:28;;;;;;;54.60;51.90;;;;;;;19.38;100.00;100854.84;5051791;28;21008;-43
2023/08/27 05:54:56;;;;;;;57.70;55.00;;;;;;;19.08;100.00;100857.13;5052680;28;20477;-42
2023/08/27 05:57:25;;;;;;;58.37;55.60;;;;;;;18.95;100.00;100857.47;5053004;28;21012;-41
2023/08/27 05:59:52;;;;;;;43.70;41.33;;;;;;;19.45;100.00;100852.78;5052309;28;20470;-42
2023/08/27 06:02:20;;;;;;;39.27;36.87;;;;;;;20.48;100.00;100856.28;5045958;28;20465;-46
2023/08/27 06:04:48;;;;;;;43.00;40.70;;;;;;;21.26;100.00;100841.91;5052359;28;20455;-42
2023/08/27 06:07:16;;;;;;;38.07;35.90;;;;;;;22.08;100.00;100846.50;5052741;28;20545;-44
2023/08/27 06:09:44;;;;;;;31.27;29.67;;;;;;;22.98;100.00;100842.94;5044681;28;20938;-47
2023/08/27 06:12:11;;;;;;;32.50;30.73;;;;;;;23.73;100.00;100828.25;5052523;28;20536;-44
2023/08/27 06:14:40;;;;;;;29.47;27.90;;;;;;;24.20;100.00;100817.59;5045596;28;20560;-43
2023/08/27 06:17:08;;;;;;;25.47;24.17;;;;;;;24.89;100.00;100818.31;5052538;28;20435;-41
2023/08/27 06:19:36;;;;;;;25.17;23.90;;;;;;;25.40;100.00;100824.81;5050679;28;20934;-43
2023/08/27 06:22:15;;;;;;;27.83;26.17;;;;;;;25.84;100.00;100819.03;5044415;28;20442;-41
2023/08/27 06:24:43;;;;;;;25.40;23.90;;;;;;;25.67;100.00;100822.31;5048285;28;20459;-45
2023/08/27 06:27:11;;;;;;;22.30;21.10;;;;;;;25.23;100.00;100810.84;5052616;28;20502;-41
2023/08/27 06:29:38;;;;;;;18.77;17.77;;;;;;;24.67;97.21;100805.97;5052387;28;20513;-41
2023/08/27 06:32:07;;;;;;;16.00;15.17;;;;;;;24.77;100.00;100810.50;5052528;28;20434;-43
2023/08/27 06:34:35;;;;;;;16.43;15.43;;;;;;;24.70;100.00;100819.03;5051880;28;20486;-48
2023/08/27 06:37:03;;;;;;;15.60;14.70;;;;;;;24.38;100.00;100813.34;5050648;28;20935;-42
2023/08/27 06:39:31;;;;;;;16.90;15.80;;;;;;;24.39;100.00;100819.63;5046332;28;20434;-41
2023/08/27 06:41:58;;;;;;;16.43;15.40;;;;;;;24.74;100.00;100825.56;5051960;28;20463;-41
2023/08/27 06:44:26;;;;;;;15.20;14.20;;;;;;;25.33;100.00;100825.16;5051462;28;20455;-43
2023/08/27 06:46:54;;;;;;;13.63;12.63;;;;;;;25.89;99.91;100816.25;5052785;28;20498;-44
2023/08/27 06:49:23;;;;;;;13.53;12.53;;;;;;;26.44;100.00;100800.06;5053353;28;20439;-42
2023/08/27 06:51:51;;;;;;;15.80;14.90;;;;;;;26.82;93.86;100807.84;5051890;28;20431;-41
2023/08/27 06:54:19;;;;;;;14.90;13.90;;;;;;;27.20;91.31;100805.75;5043266;28;21022;-43
2023/08/27 06:56:46;;;;;;;12.57;11.77;;;;;;;27.61;92.23;100807.63;5043799;28;20458;-41
2023/08/27 06:59:14;;;;;;;13.73;12.93;;;;;;;27.90;90.64;100816.25;5043726;28;20514;-41
2023/08/27 07:01:41;;;;;;;11.63;11.03;;;;;;;28.06;85.16;100819.50;5052961;28;20434;-42
2023/08/27 07:04:09;;;;;;;11.00;10.30;;;;;;;28.11;80.25;100814.69;5055309;28;20224;-42
2023/08/27 07:06:38;;;;;;;10.30;9.70;;;;;;;28.16;78.06;100825.56;5054213;28;20498;-42
2023/08/27 07:09:06;;;;;;;10.47;9.87;;;;;;;27.74;78.16;100820.50;5058995;28;20798;-42
2023/08/27 07:11:34;;;;;;;10.00;9.43;;;;;;;27.03;75.84;100811.00;5058834;28;20192;-42
2023/08/27 07:14:02;;;;;;;9.40;8.80;;;;;;;27.21;79.98;100810.09;5058526;28;20825;-45
2023/08/27 07:16:30;;;;;;;9.70;8.80;;;;;;;27.40;79.26;100812.72;5059786;28;20493;-42
2023/08/27 07:18:58;;;;;;;10.10;9.40;;;;;;;27.46;76.84;100806.03;5058156;28;20434;-44
2023/08/27 07:21:25;;;;;;;10.03;9.33;;;;;;;27.37;74.39;100810.59;5051849;28;20435;-41
2023/08/27 07:23:54;;;;;;;8.37;7.77;;;;;;;27.50;77.40;100807.06;5062867;28;20472;-42
2023/08/27 07:26:22;;;;;;;9.40;8.70;;;;;;;27.41;73.34;100811.59;5058601;28;20806;-41
2023/08/27 07:28:50;;;;;;;8.47;7.90;;;;;;;27.12;70.21;100813.88;5061531;28;20437;-41
2023/08/27 07:31:17;;;;;;;7.60;7.20;;;;;;;26.85;72.40;100804.50;5067188;28;20476;-42
2023/08/27 07:33:45;;;;;;;8.07;7.67;;;;;;;26.65;74.49;100801.31;5058576;28;20454;-43
2023/08/27 07:36:13;;;;;;;8.30;7.90;;;;;;;26.16;nan;100807.38;5056095;28;20510;-43
2023/08/27 07:38:42;;;;;;;8.07;7.57;;;;;;;25.76;77.29;100790.47;5055146;28;20443;-43
2023/08/27 07:41:12;;;;;;;8.90;8.30;;;;;;;25.31;81.16;100793.81;5057672;28;20530;-42
2023/08/27 07:43:40;;;;;;;7.23;6.83;;;;;;;25.17;86.01;100790.19;5063206;28;20454;-41
2023/08/27 07:46:08;;;;;;;8.17;7.67;;;;;;;25.22;86.33;100792.84;5049620;28;20486;-46
2023/08/27 07:48:36;;;;;;;7.10;6.70;;;;;;;25.13;86.86;100792.69;5057970;28;20507;-41
2023/08/27 07:51:04;;;;;;;6.83;6.43;;;;;;;25.08;90.75;100797.38;5057058;28;20517;-44
2023/08/27 07:53:31;;;;;;;7.60;7.20;;;;;;;25.06;88.74;100792.22;5057466;28;20451;-41
2023/08/27 07:55:59;;;;;;;6.93;6.57;;;;;;;24.93;86.92;100783.94;5056791;28;20459;-41
2023/08/27 07:58:30;;;;;;;7.63;7.03;;;;;;;24.81;87.99;100788.97;5054010;28;20428;-42
2023/08/27 08:00:59;;;;;;;7.10;6.60;;;;;;;24.74;90.96;100789.28;5055062;28;20435;-42
2023/08/27 08:03:27;;;;;;;7.00;6.60;;;;;;;24.55;89.29;100785.69;5050102;28;21255;-46
2023/08/27 08:05:55;;;;;;;7.00;6.50;;;;;;;24.53;93.29;100791.41;5048616;28;20518;-44
2023/08/27 08:08:23;;;;;;;6.30;5.90;;;;;;;24.71;92.53;100795.31;5049798;28;20558;-41
2023/08/27 08:10:55;;;;;;;6.80;6.30;;;;;;;24.68;92.93;100798.59;5058555;28;20474;-41
2023/08/27 08:13:22;;;;;;;6.23;5.90;;;;;;;24.70;94.73;100796.44;5054352;28;20451;-42
2023/08/27 08:15:52;;;;;;;6.40;6.00;;;;;;;24.59;93.00;100797.63;5053582;28;20466;-42
2023/08/27 08:18:19;;;;;;;5.70;5.40;;;;;;;24.67;89.11;100795.06;5058250;28;20423;-41
2023/08/27 08:20:48;;;;;;;5.70;5.33;;;;;;;24.66;89.35;100796.19;5049876;28;20434;-41
2023/08/27 08:23:16;;;;;;;5.33;5.10;;;;;;;24.69;86.81;100792.88;5057863;28;20906;-44
2023/08/27 08:25:44;;;;;;;5.83;5.50;;;;;;;24.63;85.20;100790.50;5057038;28;20512;-41
2023/08/27 08:28:11;;;;;;;5.13;4.93;;;;;;;24.70;87.54;100788.25;5056920;28;20536;-41
2023/08/27 08:30:46;;;;;;;4.67;4.37;;;;;;;24.78;87.75;100782.16;5051904;28;20470;-42
2023/08/27 08:33:16;;;;;;;5.67;5.27;;;;;;;24.42;86.17;100791.78;5057828;28;20473;-43
2023/08/27 08:35:44;;;;;;;5.70;5.30;;;;;;;24.14;91.66;100796.09;5058026;28;20497;-43
2023/08/27 08:38:11;;;;;;;4.87;4.57;;;;;;;24.15;93.33;100808.66;5056782;28;20436;-41
2023/08/27 08:40:44;;;;;;;4.50;4.20;;;;;;;24.21;93.05;100802.88;5057286;28;20499;-44
2023/08/27 08:43:20;;;;;;;4.40;4.10;;;;;;;24.29;91.42;100808.78;5055398;28;20497;-46
2023/08/27 08:45:58;;;;;;;4.13;3.93;;;;;;;24.41;92.72;100803.78;5044955;28;20542;-45
2023/08/27 08:48:31;;;;;;;4.70;4.50;;;;;;;24.45;91.51;100797.47;5049784;28;20467;-41
2023/08/27 08:51:00;;;;;;;4.60;4.20;;;;;;;24.54;89.80;100800.41;5060154;28;20470;-42
2023/08/27 08:53:33;;;;;;;4.17;3.80;;;;;;;24.58;88.93;100796.78;5053153;28;20509;-43
2023/08/27 08:56:06;;;;;;;3.63;3.50;;;;;;;24.58;89.82;100794.06;5057002;28;20623;-42
2023/08/27 08:58:36;;;;;;;4.20;4.00;;;;;;;24.59;88.08;100797.63;5056749;28;20492;-42
2023/08/27 09:01:04;;;;;;;3.87;3.50;;;;;;;24.74;87.66;100797.47;5048359;28;20432;-45
2023/08/27 09:03:35;;;;;;;5.60;4.53;;;;;;;24.91;84.25;100789.66;5056197;28;21003;-41
2023/08/27 09:06:04;;;;;;;3.30;3.10;;;;;;;25.10;84.00;100789.72;5048203;28;20885;-46
2023/08/27 09:08:33;;;;;;;3.50;3.30;;;;;;;25.55;85.22;100786.41;5062930;28;20495;-41
2023/08/27 09:11:01;;;;;;;4.47;4.27;;;;;;;25.53;81.01;100785.91;5055991;28;20431;-45
2023/08/27 09:13:29;;;;;;;3.73;3.63;;;;;;;25.53;78.62;100779.63;5056066;28;20522;-47
2023/08/27 09:15:57;;;;;;;4.07;3.83;;;;;;;25.43;78.90;100771.53;5049208;28;20515;-45
2023/08/27 09:18:24;;;;;;;4.03;3.60;;;;;;;25.53;77.69;100768.72;5048328;28;20429;-42
2023/08/27 09:20:53;;;;;;;3.90;3.60;;;;;;;25.50;78.93;100763.84;5056724;28;20441;-43
2023/08/27 09:23:22;;;;;;;3.93;3.63;;;;;;;25.47;75.87;100759.75;5055032;28;20443;-43
2023/08/27 09:25:51;;;;;;;3.90;3.60;;;;;;;25.45;77.58;100763.88;5053304;28;20463;-43
2023/08/27 09:28:20;;;;;;;3.90;3.70;;;;;;;25.27;76.52;100758.09;5044818;28;20467;-42
2023/08/27 09:30:47;;;;;;;4.60;4.00;;;;;;;25.23;75.29;100759.00;5048410;28;20463;-42
2023/08/27 09:33:15;;;;;;;4.30;3.90;;;;;;;25.21;76.27;100761.19;5046610;28;20457;-42
2023/08/27 09:35:43;;;;;;;5.27;4.90;;;;;;;25.23;76.93;100759.00;5043990;28;20473;-42
2023/08/27 09:38:15;;;;;;;3.87;3.67;;;;;;;25.27;79.91;100757.28;5047854;28;20427;-44
2023/08/27 09:40:43;;;;;;;3.90;3.60;;;;;;;25.45;76.27;100755.69;5042716;28;20550;-43
2023/08/27 09:43:12;;;;;;;3.77;3.50;;;;;;;25.45;76.58;100753.75;5046675;28;20454;-44
2023/08/27 09:45:39;;;;;;;3.90;3.70;;;;;;;25.58;76.51;100733.94;5041741;28;20462;-45
2023/08/27 09:48:07;;;;;;;4.47;4.07;;;;;;;25.53;78.93;100736.75;5049077;28;20482;-43
2023/08/27 09:50:35;;;;;;;3.57;3.30;;;;;;;25.62;77.05;100737.72;5048806;28;20441;-41
2023/08/27 09:53:07;;;;;;;3.37;3.17;;;;;;;25.54;78.42;100735.63;5048414;28;20451;-42
2023/08/27 09:55:37;;;;;;;3.83;3.63;;;;;;;25.37;77.26;100731.78;5048168;28;20466;-43
2023/08/27 09:58:05;;;;;;;3.67;3.47;;;;;;;25.40;78.28;100729.25;5048442;28;20454;-43
2023/08/27 10:00:34;;;;;;;4.17;3.87;;;;;;;25.54;75.21;100734.81;5044604;28;20523;-42
2023/08/27 10:03:02;;;;;;;4.67;4.27;;;;;;;25.68;77.99;100735.72;5044971;28;20985;-44
2023/08/27 10:05:33;;;;;;;3.97;3.77;;;;;;;25.86;76.13;100743.88;5032040;28;20463;-42
2023/08/27 10:08:02;;;;;;;4.77;4.30;;;;;;;26.05;76.34;100738.38;5048749;28;20502;-44
2023/08/27 10:10:31;;;;;;;4.50;4.20;;;;;;;26.18;74.92;100732.16;5040196;28;20442;-42
2023/08/27 10:13:01;;;;;;;4.27;3.97;;;;;;;26.43;76.20;100724.63;5046952;28;20454;-42
2023/08/27 10:15:31;;;;;;;3.53;3.30;;;;;;;26.52;72.00;100725.53;5031277;28;20461;-42
2023/08/27 10:18:00;;;;;;;4.17;3.87;;;;;;;26.49;73.85;100723.41;5040869;28;20533;-43
2023/08/27 10:20:29;;;;;;;4.20;3.90;;;;;;;26.55;73.18;100722.22;5038849;28;20521;-43
2023/08/27 10:22:58;;;;;;;5.80;4.10;;;;;;;26.30;71.78;100712.56;5047226;28;20508;-43
2023/08/27 10:25:27;;;;;;;3.80;3.50;;;;;;;26.47;70.86;100704.56;5047452;28;20451;-45
2023/08/27 10:27:56;;;;;;;3.80;3.60;;;;;;;26.58;70.45;100708.72;5047697;28;20993;-44
2023/08/27 10:30:26;;;;;;;3.80;3.50;;;;;;;26.71;71.66;100709.84;5046157;28;20939;-46
2023/08/27 10:32:54;;;;;;;3.40;3.20;;;;;;;26.51;69.66;100712.97;5043984;28;20446;-43
2023/08/27 10:35:22;;;;;;;3.47;3.37;;;;;;;26.34;69.37;100710.84;5048133;28;20516;-42
2023/08/27 10:37:54;;;;;;;3.70;3.37;;;;;;;25.99;67.30;100711.41;5050533;28;20448;-43
2023/08/27 10:40:26;;;;;;;3.00;2.77;;;;;;;25.81;69.82;100700.25;5052302;28;20427;-47
2023/08/27 10:43:07;;;;;;;3.80;3.60;;;;;;;25.79;73.80;100694.28;5052041;28;20450;-42
2023/08/27 10:45:38;;;;;;;4.37;4.00;;;;;;;25.55;73.20;100685.38;5044297;28;20541;-42
2023/08/27 10:48:07;;;;;;;3.90;3.70;;;;;;;25.47;73.59;100688.75;5052140;28;20433;-42
2023/08/27 10:50:46;;;;;;;3.30;3.10;;;;;;;25.32;75.88;100678.06;5044479;28;20469;-42
2023/08/27 10:53:15;;;;;;;2.77;2.67;;;;;;;25.23;76.09;100680.66;5043325;28;20858;-44
2023/08/27 10:55:44;;;;;;;2.50;2.40;;;;;;;25.14;77.77;100666.06;5051639;28;20480;-43
2023/08/27 10:58:17;;;;;;;2.67;2.50;;;;;;;25.00;77.93;100662.41;5051847;28;20807;-43
2023/08/27 11:01:02;;;;;;;3.27;3.07;;;;;;;25.04;78.14;100657.19;5051894;28;20442;-44
2023/08/27 11:03:51;;;;;;;2.90;2.70;;;;;;;24.99;78.02;100657.25;5051441;28;20969;-43
2023/08/27 11:06:20;;;;;;;3.13;2.67;;;;;;;24.98;79.63;100652.91;5051533;28;20471;-46
2023/08/27 11:08:52;;;;;;;2.90;2.70;;;;;;;24.90;80.53;100654.38;5051453;28;20467;-42
2023/08/27 11:11:25;;;;;;;4.27;3.87;;;;;;;24.69;79.92;100648.34;5051422;28;20435;-45